Burke, New York
Current Conditions -  °F | °C
As of 9:53 AM on Wednesday 22 Oct 2014 (Local Time) from KMSS Reporting Station
Overcast Overcast  
Wind Chill: 39°   Ceiling: 2400
Heat Index: 46°   Visibility: 10mi
Dew Point: 36°   Wind: 17mph
Humidity: 68%   Direction: 40°NE
Pressure: 30.27"   Gusts: 23mph
Location:  44.9°N, 74.17°W
Report Text: KMSS 221353Z AUTO 04015G20KT 10SM OVC024 08/02 A3027 RMK AO2 SLP252 T00780022
Loading
Personal Weather Stations






























Interactive Weather Map
Tropical Storm Tracking
New forecast layout! Learn more

10-Day Weather Forecast

Advertisements
Track Severe Weather on mobile